Time;durP1;ratioP1;P1;durP2;ratioP2;P2;SDS_P1;SDS_P2;PMS_P1;PMS_P2;Temp;Humidity;BMP_temperature;BMP_pressure;BME280_temperature;BME280_humidity;BME280_pressure;Samples;Min_cycle;Max_cycle;Signal;HPM_P1;HPM_P2
2021/07/01 00:01:56;;;;;;;;;;;;;;;;;;;;;
2021/07/01 00:04:35;;;;;;;6.37;5.77;;;;;;;27.43;53.96;100192.66;127942;1089;64144;-84
2021/07/01 00:07:01;;;;;;;6.93;5.63;;;;;;;27.41;53.72;100194.70;127917;1090;64364;-83
2021/07/01 00:09:43;;;;;;;6.77;5.90;;;;;;;27.41;53.66;100205.55;127918;1089;64255;-84
2021/07/01 00:12:20;;;;;;;6.30;5.33;;;;;;;27.39;53.91;100196.72;127927;1088;64188;-84
2021/07/01 00:15:13;;;;;;;6.50;5.33;;;;;;;27.38;53.71;100208.56;127928;1090;64143;-85
2021/07/01 00:18:00;;;;;;;6.43;5.70;;;;;;;27.37;53.84;100223.15;127914;1089;64252;-84
2021/07/01 00:20:46;;;;;;;6.03;5.37;;;;;;;27.35;53.91;100219.71;128141;1087;65078;-85
2021/07/01 00:23:15;;;;;;;5.93;5.27;;;;;;;27.34;54.04;100218.88;128384;1087;64256;-84
2021/07/01 00:25:42;;;;;;;;;;;;;;;27.33;53.82;100194.66;128415;1087;64134;-84
2021/07/01 00:28:11;;;;;;;6.10;5.50;;;;;;;27.31;53.99;100200.22;128389;1084;64177;-85
2021/07/01 00:30:46;;;;;;;6.33;5.23;;;;;;;27.31;53.98;100199.38;128414;1087;64217;-84
2021/07/01 00:33:33;;;;;;;7.97;5.40;;;;;;;27.29;53.94;100188.70;128389;1087;64134;-84
2021/07/01 00:36:12;;;;;;;6.87;5.37;;;;;;;27.31;54.21;100183.12;128402;1086;64192;-84
2021/07/01 00:38:52;;;;;;;6.43;5.20;;;;;;;27.32;54.03;100182.11;128377;1087;64140;-84
2021/07/01 00:41:27;;;;;;;6.77;5.07;;;;;;;27.35;54.27;100176.34;128374;1087;64105;-85
2021/07/01 00:44:13;;;;;;;7.13;5.33;;;;;;;27.36;54.21;100162.63;128351;1087;64141;-84
2021/07/01 00:46:50;;;;;;;6.17;5.20;;;;;;;27.41;54.39;100154.05;128395;1087;64258;-85
2021/07/01 00:49:43;;;;;;;6.70;5.40;;;;;;;27.42;54.28;100151.16;128372;1087;64003;-84
2021/07/01 00:52:13;;;;;;;5.50;4.90;;;;;;;27.44;53.98;100150.98;128364;1087;64207;-84
2021/07/01 00:54:51;;;;;;;6.83;5.57;;;;;;;27.46;54.13;100153.53;128370;1087;64249;-84
2021/07/01 00:57:32;;;;;;;6.40;5.60;;;;;;;27.46;54.21;100151.69;128426;1086;64140;-85
2021/07/01 01:00:24;;;;;;;8.93;5.50;;;;;;;27.45;54.30;100132.85;128395;1087;63939;-83
2021/07/01 01:03:17;;;;;;;8.20;5.63;;;;;;;27.44;54.18;100129.31;128363;1087;64109;-84
2021/07/01 01:05:54;;;;;;;6.40;4.90;;;;;;;27.43;54.44;100123.05;128390;1087;64280;-83
2021/07/01 01:08:23;;;;;;;6.43;5.20;;;;;;;27.43;54.06;100116.77;128407;1087;63997;-84
2021/07/01 01:10:55;;;;;;;6.00;5.30;;;;;;;27.41;54.05;100108.80;128434;1086;64022;-84
2021/07/01 01:13:33;;;;;;;6.53;4.83;;;;;;;27.40;54.13;100112.52;128382;1087;64368;-84
2021/07/01 01:16:08;;;;;;;5.90;5.10;;;;;;;27.39;54.15;100101.86;128375;1087;64371;-83
2021/07/01 01:18:35;;;;;;;5.63;4.87;;;;;;;27.38;54.24;100122.70;128400;1087;63948;-84
2021/07/01 01:21:26;;;;;;;5.57;4.93;;;;;;;27.36;54.31;100127.39;128358;1086;64163;-85
2021/07/01 01:24:07;;;;;;;5.37;4.73;;;;;;;27.35;54.42;100127.57;128366;1087;64140;-83
2021/07/01 01:26:42;;;;;;;6.50;5.10;;;;;;;27.34;54.26;100136.70;128380;1087;64252;-83
2021/07/01 01:29:33;;;;;;;5.70;4.90;;;;;;;27.34;54.29;100128.58;128395;1087;64105;-84
2021/07/01 01:32:22;;;;;;;6.07;4.93;;;;;;;27.31;54.23;100127.05;127940;1087;64143;-85
2021/07/01 01:35:09;;;;;;;5.48;4.70;;;;;;;27.32;54.35;100133.33;127927;1085;64327;-84
2021/07/01 01:37:36;;;;;;;5.57;4.60;;;;;;;27.33;54.55;100137.75;127914;1087;64395;-84
2021/07/01 01:40:26;;;;;;;7.53;4.70;;;;;;;27.36;54.62;100140.11;127943;1087;64140;-85
2021/07/01 01:43:16;;;;;;;6.00;4.60;;;;;;;27.37;54.72;100137.27;127910;1089;64048;-85
2021/07/01 01:45:44;;;;;;;6.00;4.87;;;;;;;27.39;54.47;100140.67;127880;1090;64166;-83
2021/07/01 01:48:14;;;;;;;5.97;4.87;;;;;;;27.42;54.34;100147.59;127911;1087;64138;-85
2021/07/01 01:51:03;;;;;;;5.57;4.93;;;;;;;27.43;54.42;100154.71;127944;1087;64264;-85
2021/07/01 01:54:01;;;;;;;5.53;4.47;;;;;;;27.44;54.32;100159.13;127919;1087;64245;-84
2021/07/01 01:56:36;;;;;;;5.80;4.90;;;;;;;27.43;54.55;100157.42;127884;1087;64137;-84
2021/07/01 01:59:11;;;;;;;6.67;4.87;;;;;;;27.42;54.51;100159.30;127927;1087;64182;-84
2021/07/01 02:01:46;;;;;;;6.53;4.63;;;;;;;27.42;54.44;100174.69;127925;1087;64141;-85
2021/07/01 02:04:18;;;;;;;6.00;4.93;;;;;;;27.41;54.29;100194.70;127941;1087;64214;-84
2021/07/01 02:07:02;;;;;;;5.43;4.60;;;;;;;27.40;54.36;100211.97;127925;1087;64152;-84
2021/07/01 02:09:57;;;;;;;5.27;4.57;;;;;;;27.39;54.16;100232.81;128105;1087;64140;-84
2021/07/01 02:12:29;;;;;;;6.13;4.60;;;;;;;27.36;54.22;100238.52;127913;1087;64280;-84
2021/07/01 02:15:02;;;;;;;5.43;4.90;;;;;;;27.36;54.30;100227.67;127915;1087;64144;-85
2021/07/01 02:17:49;;;;;;;5.47;4.43;;;;;;;27.35;54.55;100225.97;127889;1087;64147;-84
2021/07/01 02:20:18;;;;;;;5.00;4.33;;;;;;;27.34;54.34;100228.84;127917;1087;64173;-85
2021/07/01 02:23:04;;;;;;;;;;;;;;;;;;;;;
2021/07/01 02:25:42;;;;;;;5.13;4.60;;;;;;;27.32;54.49;100274.25;127883;1090;63955;-84
2021/07/01 02:28:09;;;;;;;5.28;4.70;;;;;;;27.31;54.36;100275.25;127900;1087;64170;-84
2021/07/01 02:30:44;;;;;;;5.67;4.67;;;;;;;27.29;54.29;100267.30;127875;1087;64267;-83
2021/07/01 02:33:11;;;;;;;5.30;4.27;;;;;;;27.30;54.43;100260.87;127812;1087;64877;-84
2021/07/01 02:35:46;;;;;;;6.97;4.40;;;;;;;27.29;54.47;100237.48;127738;1087;63965;-84
2021/07/01 02:38:13;;;;;;;5.30;4.47;;;;;;;27.32;54.74;100247.98;127776;1087;64211;-84
2021/07/01 02:40:48;;;;;;;6.13;4.70;;;;;;;27.34;54.64;100267.66;127745;1087;64149;-84
2021/07/01 02:43:14;;;;;;;7.13;4.53;;;;;;;27.37;54.72;100275.48;127774;1087;64370;-82
2021/07/01 02:45:57;;;;;;;5.90;4.77;;;;;;;27.39;54.76;100267.19;127749;1087;64114;-81
2021/07/01 02:48:32;;;;;;;4.97;4.20;;;;;;;27.41;54.60;100284.14;127885;1087;64135;-84
2021/07/01 02:51:15;;;;;;;5.43;4.60;;;;;;;27.41;54.66;100282.27;128305;1087;64140;-84
2021/07/01 02:53:53;;;;;;;5.30;4.40;;;;;;;27.41;54.49;100311.25;128402;1087;64225;-83
2021/07/01 02:56:39;;;;;;;6.37;4.43;;;;;;;27.41;54.23;100314.80;128350;1087;64142;-83
2021/07/01 02:59:11;;;;;;;5.37;4.50;;;;;;;27.41;54.25;100305.83;128373;1087;64160;-83
2021/07/01 03:02:03;;;;;;;5.70;4.40;;;;;;;27.40;54.46;100320.38;128367;1085;64923;-84
2021/07/01 03:04:32;;;;;;;5.70;4.57;;;;;;;27.38;54.22;100314.27;127990;1087;64243;-84
2021/07/01 03:07:16;;;;;;;5.57;4.67;;;;;;;27.37;54.22;100307.17;128381;1086;64222;-84
2021/07/01 03:09:59;;;;;;;4.83;3.83;;;;;;;27.37;54.51;100336.98;128401;1086;64217;-83
2021/07/01 03:12:31;;;;;;;4.83;4.30;;;;;;;27.34;54.24;100329.12;128347;1087;64179;-84
2021/07/01 03:15:00;;;;;;;6.67;4.30;;;;;;;27.33;54.40;100339.13;128415;1086;64234;-84
2021/07/01 03:17:27;;;;;;;5.27;4.10;;;;;;;27.33;54.53;100362.67;128374;1087;64837;-84
2021/07/01 03:20:05;;;;;;;5.77;4.47;;;;;;;27.31;54.21;100353.84;128390;1086;64239;-84
2021/07/01 03:22:41;;;;;;;5.88;4.38;;;;;;;27.30;54.39;100347.59;128364;1087;64208;-84
2021/07/01 03:25:16;;;;;;;5.80;4.40;;;;;;;27.29;54.16;100350.44;128386;1087;64179;-84
2021/07/01 03:27:43;;;;;;;6.70;4.27;;;;;;;27.26;54.47;100352.47;128377;1087;64134;-84
2021/07/01 03:30:14;;;;;;;5.23;4.60;;;;;;;27.25;54.22;100348.05;128385;1087;64144;-84
2021/07/01 03:33:01;;;;;;;6.53;4.60;;;;;;;27.25;54.31;100360.77;128385;1085;64288;-84
2021/07/01 03:35:31;;;;;;;5.90;4.37;;;;;;;27.25;54.24;100363.48;128369;1087;64240;-83
2021/07/01 03:38:13;;;;;;;5.23;4.37;;;;;;;27.23;54.23;100369.06;128368;1087;64156;-84
2021/07/01 03:40:50;;;;;;;5.37;4.20;;;;;;;27.23;54.25;100373.61;128015;1087;64236;-84
2021/07/01 03:43:37;;;;;;;5.10;4.35;;;;;;;27.23;54.23;100379.90;128376;1086;64593;-84
2021/07/01 03:46:11;;;;;;;;;;;;;;;27.21;54.51;100387.33;128400;1086;64118;-84
2021/07/01 03:48:49;;;;;;;5.20;4.57;;;;;;;27.20;54.44;100391.04;128361;1087;64126;-84
2021/07/01 03:51:49;;;;;;;6.20;4.00;;;;;;;27.20;54.62;100385.63;128350;1087;64144;-84
2021/07/01 03:54:30;;;;;;;5.40;4.00;;;;;;;27.22;54.59;100383.61;128400;1085;64125;-84
2021/07/01 03:57:00;;;;;;;;;;;;;;;27.23;54.64;100369.06;128417;1087;64140;-85
2021/07/01 03:59:49;;;;;;;6.73;4.23;;;;;;;27.25;54.77;100367.02;128351;1086;64044;-84
2021/07/01 04:02:24;;;;;;;5.23;4.10;;;;;;;27.29;54.77;100347.72;127887;1087;64146;-84
2021/07/01 04:04:51;;;;;;;5.83;4.50;;;;;;;27.29;54.35;100343.17;127891;1087;64233;-84
2021/07/01 04:07:35;;;;;;;5.40;4.60;;;;;;;27.31;54.46;100345.72;127941;1086;64327;-84
2021/07/01 04:10:23;;;;;;;;;;;;;;;;;;;;;
2021/07/01 04:13:02;;;;;;;6.07;4.70;;;;;;;27.31;53.89;100348.42;127727;1087;64215;-84
2021/07/01 04:15:28;;;;;;;5.93;4.90;;;;;;;27.30;53.72;100346.72;127890;1087;64143;-84
2021/07/01 04:18:19;;;;;;;6.73;4.43;;;;;;;27.29;53.83;100345.88;127894;1087;64216;-85
2021/07/01 04:21:10;;;;;;;6.10;4.63;;;;;;;27.27;53.75;100339.76;127674;1090;63962;-84
2021/07/01 04:23:40;;;;;;;8.53;4.90;;;;;;;27.25;53.49;100349.93;127683;1093;64147;-83
2021/07/01 04:26:44;;;;;;;7.97;4.93;;;;;;;27.23;53.19;100338.39;127686;1093;64120;-84
2021/07/01 04:29:24;;;;;;;;;;;;;;;;;;;;;
2021/07/01 04:32:05;;;;;;;10.27;5.93;;;;;;;27.18;53.16;100333.47;127717;1090;64112;-83
2021/07/01 04:34:40;;;;;;;7.73;5.80;;;;;;;27.17;53.01;100331.76;127672;1090;64169;-84
2021/07/01 04:37:17;;;;;;;10.30;8.23;;;;;;;27.17;52.98;100341.77;127681;1090;64253;-83
2021/07/01 04:39:46;;;;;;;9.17;6.40;;;;;;;27.16;52.61;100350.89;127753;1088;64218;-84
2021/07/01 04:42:23;;;;;;;10.20;6.23;;;;;;;27.13;52.45;100351.22;127924;1088;64316;-84
2021/07/01 04:44:52;;;;;;;10.70;6.63;;;;;;;27.12;52.39;100373.91;127924;1089;64217;-84
2021/07/01 04:47:19;;;;;;;8.80;5.47;;;;;;;27.11;52.47;100373.03;127905;1090;64169;-83
2021/07/01 04:49:57;;;;;;;9.20;5.40;;;;;;;27.08;52.42;100360.66;127948;1089;64204;-84
2021/07/01 04:52:36;;;;;;;7.33;5.80;;;;;;;27.08;52.36;100366.06;127927;1090;64227;-84
2021/07/01 04:55:10;;;;;;;8.07;6.30;;;;;;;27.08;52.34;100376.07;127903;1090;64147;-83
2021/07/01 04:57:42;;;;;;;8.07;5.70;;;;;;;27.07;52.04;100377.94;127923;1090;64189;-84
2021/07/01 05:00:08;;;;;;;;;;;;;;;27.06;52.12;100373.52;128403;1087;64022;-84
2021/07/01 05:02:34;;;;;;;8.73;6.50;;;;;;;27.06;52.20;100378.11;128377;1086;64227;-84
2021/07/01 05:05:30;;;;;;;9.87;5.87;;;;;;;27.06;51.89;100373.52;128363;1086;64215;-84
2021/07/01 05:07:58;;;;;;;8.20;6.03;;;;;;;27.07;52.03;100363.52;128361;1086;64230;-84
2021/07/01 05:10:28;;;;;;;8.87;5.93;;;;;;;27.07;52.14;100368.94;127883;1087;64265;-82
2021/07/01 05:13:06;;;;;;;9.43;7.00;;;;;;;27.07;52.00;100372.52;128201;1087;64281;-84
2021/07/01 05:15:43;;;;;;;;;;;;;;;;;;;;;
2021/07/01 05:18:50;;;;;;;;;;;;;;;;;;;;;
2021/07/01 05:21:26;;;;;;;;;;;;;;;;;;;;;
2021/07/01 05:24:00;;;;;;;8.73;6.43;;;;;;;27.09;51.88;100413.00;128234;1087;64314;-83
2021/07/01 05:26:27;;;;;;;10.07;7.07;;;;;;;27.10;51.90;100417.41;128300;1087;64112;-84
2021/07/01 05:29:25;;;;;;;;;;;;;;;;;;;;;
2021/07/01 05:32:02;;;;;;;10.77;7.53;;;;;;;27.12;51.81;100415.38;128405;1086;64190;-84
2021/07/01 05:34:42;;;;;;;13.30;8.23;;;;;;;27.12;51.70;100404.54;128368;1087;64071;-84
2021/07/01 05:37:11;;;;;;;11.37;7.60;;;;;;;27.11;51.58;100402.83;128356;1086;64137;-84
2021/07/01 05:39:57;;;;;;;21.43;7.00;;;;;;;27.11;51.51;100389.28;128359;1087;64200;-84
2021/07/01 05:42:24;;;;;;;9.70;6.40;;;;;;;27.10;51.51;100374.06;128384;1087;64138;-83
2021/07/01 05:45:16;;;;;;;13.00;6.87;;;;;;;27.10;51.33;100365.94;128315;1086;64291;-84
2021/07/01 05:48:01;;;;;;;11.63;7.40;;;;;;;27.10;51.41;100368.64;128369;1085;64138;-84
2021/07/01 05:50:31;;;;;;;30.27;8.40;;;;;;;27.09;51.31;100365.06;128349;1086;64205;-85
2021/07/01 05:56:08;;;;;;;22.50;7.10;;;;;;;27.07;51.52;100340.02;128043;1085;64282;-84
2021/07/01 05:58:35;;;;;;;21.47;7.57;;;;;;;27.10;51.37;100344.27;128358;1087;64288;-84
2021/07/01 06:01:40;;;;;;;;;;;;;;;;;;;;;
2021/07/01 06:04:08;;;;;;;20.53;6.67;;;;;;;27.11;51.12;100332.39;127901;1090;64423;-84
2021/07/01 06:06:45;;;;;;;17.60;7.97;;;;;;;27.13;51.15;100322.26;127903;1090;64112;-84
2021/07/01 06:09:12;;;;;;;16.37;6.97;;;;;;;27.13;51.20;100329.55;127831;1090;64661;-83
2021/07/01 06:11:41;;;;;;;14.57;6.17;;;;;;;27.13;51.18;100335.80;127885;1089;64286;-83
2021/07/01 06:14:10;;;;;;;11.40;6.13;;;;;;;27.15;51.31;100335.64;127898;1090;64143;-83
2021/07/01 06:16:37;;;;;;;9.47;6.67;;;;;;;27.13;51.18;100324.97;127904;1089;64648;-83
2021/07/01 06:19:04;;;;;;;10.83;6.40;;;;;;;27.12;50.99;100317.01;127907;1088;64427;-82
2021/07/01 06:21:38;;;;;;;9.83;6.17;;;;;;;27.11;50.95;100316.14;127831;1090;64127;-81
2021/07/01 06:24:15;;;;;;;12.23;7.17;;;;;;;27.12;51.06;100315.13;127903;1090;64156;-82
2021/07/01 06:26:45;;;;;;;11.40;6.63;;;;;;;27.12;51.10;100317.01;127913;1090;64243;-82
2021/07/01 06:29:16;;;;;;;13.00;6.70;;;;;;;27.12;51.11;100317.84;127862;1088;64151;-82
2021/07/01 06:31:42;;;;;;;13.70;7.07;;;;;;;27.10;51.28;100319.88;127891;1090;64179;-82
2021/07/01 06:34:16;;;;;;;12.63;6.83;;;;;;;27.10;50.99;100315.30;127900;1090;65107;-83
2021/07/01 06:36:43;;;;;;;9.90;6.63;;;;;;;27.10;51.06;100320.72;127887;1088;64128;-82
2021/07/01 06:39:10;;;;;;;11.20;6.47;;;;;;;27.11;51.22;100316.14;127772;1089;64179;-82
2021/07/01 06:41:37;;;;;;;10.90;6.70;;;;;;;27.12;51.10;100322.42;127726;1090;64320;-82
2021/07/01 06:44:07;;;;;;;9.77;5.97;;;;;;;27.12;50.93;100325.14;127789;1090;64174;-82
2021/07/01 06:46:34;;;;;;;7.77;6.40;;;;;;;27.12;50.86;100322.42;128057;1089;64135;-80
2021/07/01 06:49:04;;;;;;;7.70;6.10;;;;;;;27.10;50.80;100319.88;127805;1090;64351;-80
2021/07/01 06:51:38;;;;;;;9.03;6.00;;;;;;;27.10;50.74;100311.75;127768;1088;64141;-82
2021/07/01 06:54:04;;;;;;;8.13;6.20;;;;;;;27.08;50.60;100314.59;127946;1090;64412;-82
2021/07/01 06:56:40;;;;;;;6.73;5.77;;;;;;;27.07;50.36;100318.34;127879;1090;64146;-82
2021/07/01 06:59:10;;;;;;;9.50;6.10;;;;;;;27.06;50.51;100327.47;127879;1090;64137;-82
2021/07/01 07:01:39;;;;;;;8.00;6.45;;;;;;;27.05;50.38;100327.64;127870;1089;64291;-82
2021/07/01 07:04:08;;;;;;;10.20;6.37;;;;;;;27.05;50.52;100322.22;127874;1090;64217;-82
2021/07/01 07:06:36;;;;;;;15.03;6.10;;;;;;;27.06;50.51;100323.92;127832;1088;64243;-82
2021/07/01 07:09:07;;;;;;;12.00;6.40;;;;;;;27.06;50.27;100326.64;127854;1090;64140;-81
2021/07/01 07:11:35;;;;;;;10.73;5.90;;;;;;;27.06;49.90;100329.34;127789;1090;64137;-81
2021/07/01 07:14:03;;;;;;;9.97;5.73;;;;;;;27.06;50.20;100318.51;127870;1090;62464;-82
2021/07/01 07:16:38;;;;;;;8.23;5.60;;;;;;;27.06;50.34;100315.80;127821;1090;64335;-82
2021/07/01 07:19:04;;;;;;;7.83;5.73;;;;;;;27.06;50.01;100318.51;127836;1090;64134;-82
2021/07/01 07:21:36;;;;;;;9.67;5.90;;;;;;;27.05;49.95;100317.64;127845;1088;64249;-82
2021/07/01 07:24:03;;;;;;;13.77;6.10;;;;;;;27.06;49.93;100315.80;127905;1089;63189;-82
2021/07/01 07:26:39;;;;;;;13.17;6.43;;;;;;;27.05;49.94;100308.67;127790;1088;64213;-82
2021/07/01 07:29:06;;;;;;;8.13;5.50;;;;;;;27.04;49.69;100301.55;127840;1090;64262;-82
2021/07/01 07:31:33;;;;;;;15.83;5.80;;;;;;;27.05;49.75;100306.80;127832;1090;65029;-82
2021/07/01 07:34:01;;;;;;;10.77;6.20;;;;;;;27.05;49.61;100297.84;127883;1089;64140;-83
2021/07/01 07:36:27;;;;;;;11.83;6.30;;;;;;;27.06;50.25;100313.92;129153;1088;62299;-80
2021/07/01 07:38:54;;;;;;;9.50;6.50;;;;;;;27.06;49.91;100313.09;129156;1090;62381;-80
2021/07/01 07:41:35;;;;;;;9.93;6.27;;;;;;;27.06;49.84;100321.22;127834;1090;64268;-80
2021/07/01 07:44:01;;;;;;;9.77;6.00;;;;;;;27.08;49.92;100324.59;127812;1088;62949;-81
2021/07/01 07:46:30;;;;;;;9.83;5.47;;;;;;;27.08;49.58;100325.44;127838;1089;64171;-81
2021/07/01 07:48:57;;;;;;;8.73;6.00;;;;;;;27.09;49.73;100334.43;127825;1090;64767;-81
2021/07/01 07:51:25;;;;;;;9.93;5.70;;;;;;;27.11;49.56;100337.81;127766;1088;64365;-81
2021/07/01 07:53:57;;;;;;;;;;;;;;;27.11;49.77;100335.10;127878;1089;64153;-81
2021/07/01 07:56:36;;;;;;;10.23;6.17;;;;;;;27.09;49.74;100331.72;127783;1090;64176;-81
2021/07/01 07:59:04;;;;;;;9.50;5.77;;;;;;;27.10;49.69;100333.43;127898;1088;64167;-81
2021/07/01 08:01:31;;;;;;;11.13;5.75;;;;;;;27.09;49.57;100329.02;127826;1090;64109;-82
2021/07/01 08:03:58;;;;;;;7.77;5.67;;;;;;;27.11;49.88;100337.81;127827;1089;64166;-81
2021/07/01 08:06:24;;;;;;;8.40;5.93;;;;;;;27.11;49.68;100332.39;127781;1089;64159;-82
2021/07/01 08:08:51;;;;;;;9.40;6.20;;;;;;;27.13;50.17;100324.97;127951;1087;64233;-83
2021/07/01 08:11:17;;;;;;;9.87;5.93;;;;;;;27.15;49.70;100313.97;127893;1088;64142;-83
2021/07/01 08:13:44;;;;;;;7.43;6.07;;;;;;;27.13;49.72;100303.30;127919;1090;64214;-82
2021/07/01 08:16:10;;;;;;;9.67;6.10;;;;;;;27.12;49.72;100303.46;127851;1090;62277;-82
2021/07/01 08:18:41;;;;;;;13.80;6.13;;;;;;;27.12;49.56;100307.00;127774;1090;64341;-83
2021/07/01 08:21:13;;;;;;;13.70;6.30;;;;;;;27.13;49.52;100297.88;127923;1089;64073;-82
2021/07/01 08:23:43;;;;;;;9.97;7.53;;;;;;;27.12;49.77;100289.91;127892;1089;64016;-83
2021/07/01 08:26:10;;;;;;;8.93;6.50;;;;;;;27.10;49.77;100277.38;127870;1088;64240;-83
2021/07/01 08:28:36;;;;;;;13.10;6.83;;;;;;;27.10;49.84;100271.95;127859;1089;64150;-83
2021/07/01 08:31:17;;;;;;;8.87;6.10;;;;;;;27.12;49.88;100270.95;127903;1090;64220;-84
2021/07/01 08:33:45;;;;;;;12.20;8.37;;;;;;;27.12;49.94;100279.91;128020;1090;64429;-83
2021/07/01 08:36:37;;;;;;;12.08;9.90;;;;;;;27.12;50.07;100276.38;127839;1090;64141;-85
2021/07/01 08:39:03;;;;;;;12.70;8.33;;;;;;;27.10;50.15;100266.53;127871;1090;64144;-83
2021/07/01 08:41:37;;;;;;;13.07;8.77;;;;;;;27.08;49.64;100273.97;127863;1088;63973;-83
2021/07/01 08:44:08;;;;;;;7.33;6.50;;;;;;;27.05;49.73;100266.17;127840;1087;64571;-82
2021/07/01 08:46:48;;;;;;;11.33;7.40;;;;;;;27.04;49.89;100261.75;127901;1090;64102;-82
2021/07/01 08:49:50;;;;;;;11.55;7.20;;;;;;;27.04;50.01;100275.30;127836;1090;64134;-83
2021/07/01 08:52:16;;;;;;;10.73;7.03;;;;;;;27.05;49.70;100276.17;127737;1089;64417;-83
2021/07/01 08:54:46;;;;;;;10.17;6.43;;;;;;;27.06;49.91;100277.88;127800;1089;64175;-84
2021/07/01 08:57:13;;;;;;;9.30;6.40;;;;;;;27.07;49.89;100280.41;127790;1088;64163;-80
2021/07/01 08:59:44;;;;;;;8.33;6.47;;;;;;;27.07;49.78;100274.13;127840;1087;64305;-82
2021/07/01 09:02:11;;;;;;;8.47;5.87;;;;;;;27.09;50.12;100280.25;128206;1085;64233;-83
2021/07/01 09:05:16;;;;;;;9.87;6.10;;;;;;;27.11;49.89;100272.79;128266;1087;64238;-85
2021/07/01 09:07:49;;;;;;;11.20;5.60;;;;;;;27.10;49.89;100271.95;127852;1090;64264;-83
2021/07/01 09:10:15;;;;;;;8.73;6.50;;;;;;;27.12;49.94;100263.66;127921;1090;64301;-84
2021/07/01 09:12:53;;;;;;;10.93;6.47;;;;;;;27.14;49.75;100274.33;127839;1090;64029;-81
2021/07/01 09:15:31;;;;;;;10.77;6.43;;;;;;;27.14;49.79;100268.91;127945;1090;64144;-83
2021/07/01 09:18:04;;;;;;;9.60;6.30;;;;;;;27.15;49.77;100270.62;127855;1090;64492;-83
2021/07/01 09:20:36;;;;;;;8.23;5.97;;;;;;;27.16;49.66;100267.73;127871;1090;64173;-83
2021/07/01 09:23:11;;;;;;;9.30;6.40;;;;;;;27.17;49.81;100258.61;127896;1090;64144;-83
2021/07/01 09:25:41;;;;;;;10.03;6.57;;;;;;;27.19;49.88;100262.02;127900;1090;64143;-83
2021/07/01 09:28:14;;;;;;;8.37;6.40;;;;;;;27.20;49.84;100263.69;127984;1088;64035;-83
2021/07/01 09:31:03;;;;;;;8.13;6.13;;;;;;;27.21;50.00;100253.72;127865;1090;64117;-82
2021/07/01 09:33:33;;;;;;;7.53;6.20;;;;;;;27.22;49.93;100250.84;127807;1089;64142;-82
2021/07/01 09:36:00;;;;;;;9.27;6.33;;;;;;;27.23;49.62;100254.39;127926;1088;61704;-83
2021/07/01 09:38:27;;;;;;;9.10;5.73;;;;;;;27.23;49.75;100244.41;127796;1089;64111;-82
2021/07/01 09:40:53;;;;;;;8.20;6.17;;;;;;;27.25;49.97;100249.67;127785;1090;64141;-82
2021/07/01 09:43:20;;;;;;;9.67;6.30;;;;;;;27.26;49.82;100245.95;127991;1087;62802;-82
2021/07/01 09:45:46;;;;;;;7.50;5.63;;;;;;;27.27;49.90;100242.20;128282;1087;64096;-82
2021/07/01 09:48:14;;;;;;;8.97;5.90;;;;;;;27.28;50.00;100245.78;127957;1086;64160;-82
2021/07/01 09:50:46;;;;;;;8.83;7.33;;;;;;;27.29;49.68;100236.62;128233;1086;64191;-82
2021/07/01 09:53:33;;;;;;;9.77;6.80;;;;;;;27.28;49.69;100229.52;128273;1087;64144;-82
2021/07/01 09:56:07;;;;;;;11.70;6.33;;;;;;;27.28;49.60;100229.52;128354;1086;63952;-83
2021/07/01 09:58:38;;;;;;;10.90;6.30;;;;;;;27.29;49.58;100220.36;128333;1087;64140;-82
2021/07/01 10:01:04;;;;;;;7.33;6.07;;;;;;;27.28;49.90;100210.55;128477;1087;64289;-82
2021/07/01 10:03:30;;;;;;;9.97;6.37;;;;;;;27.30;49.95;100217.51;128303;1086;64211;-82
2021/07/01 10:06:16;;;;;;;10.57;6.17;;;;;;;27.30;49.82;100211.22;128254;1085;64182;-81
2021/07/01 10:08:42;;;;;;;12.43;6.37;;;;;;;27.29;49.81;100215.81;129543;1087;61904;-82
2021/07/01 10:11:09;;;;;;;9.43;6.33;;;;;;;27.32;49.84;100214.63;129453;1087;61824;-82
2021/07/01 10:13:35;;;;;;;8.90;6.60;;;;;;;27.32;49.84;100222.77;128240;1086;64169;-82
2021/07/01 10:16:01;;;;;;;9.03;6.30;;;;;;;27.32;49.69;100223.59;128264;1085;64179;-82
2021/07/01 10:18:27;;;;;;;8.90;6.25;;;;;;;27.34;49.93;100216.16;128281;1086;64830;-84
2021/07/01 10:21:00;;;;;;;8.30;6.40;;;;;;;27.34;49.93;100218.88;128332;1087;64193;-82
2021/07/01 10:23:33;;;;;;;10.07;6.67;;;;;;;27.34;49.79;100213.45;128344;1087;64159;-83
2021/07/01 10:26:20;;;;;;;7.33;5.90;;;;;;;27.34;49.47;100210.75;128330;1086;65126;-84
2021/07/01 10:29:04;;;;;;;10.73;6.30;;;;;;;27.35;49.61;100208.88;128353;1086;64141;-84
2021/07/01 10:32:15;;;;;;;8.07;5.97;;;;;;;27.35;49.86;100207.00;128331;1086;64130;-84
2021/07/01 10:35:25;;;;;;;8.57;6.60;;;;;;;27.35;49.66;100198.03;128333;1086;64140;-83
2021/07/01 10:38:05;;;;;;;9.60;6.67;;;;;;;27.35;49.27;100189.91;128298;1086;64927;-83
2021/07/01 10:40:38;;;;;;;8.00;6.33;;;;;;;27.35;49.92;100189.91;128275;1087;64246;-84
2021/07/01 10:43:07;;;;;;;9.00;5.97;;;;;;;27.34;49.68;100180.06;128291;1085;64144;-83
2021/07/01 10:45:37;;;;;;;9.00;6.23;;;;;;;27.35;49.55;100182.61;128247;1087;64424;-83
2021/07/01 10:48:16;;;;;;;9.07;6.10;;;;;;;27.35;49.91;100171.77;128241;1087;64275;-83
2021/07/01 10:50:45;;;;;;;8.93;6.07;;;;;;;27.35;49.85;100168.22;128762;1085;61854;-82
2021/07/01 10:53:44;;;;;;;8.03;6.10;;;;;;;27.37;49.86;100179.79;129564;1087;63331;-82
2021/07/01 10:56:17;;;;;;;8.57;6.40;;;;;;;27.37;49.77;100171.66;128265;1086;64114;-81
2021/07/01 10:58:44;;;;;;;10.33;6.70;;;;;;;27.38;49.79;100179.62;128269;1086;64258;-81
2021/07/01 11:01:20;;;;;;;9.27;6.80;;;;;;;27.39;49.89;100169.61;129486;1086;62113;-81
2021/07/01 11:03:47;;;;;;;11.13;7.23;;;;;;;27.40;49.62;100169.44;128534;1085;64127;-83
2021/07/01 11:06:22;;;;;;;10.40;7.40;;;;;;;27.41;49.95;100171.14;128301;1085;64141;-83
2021/07/01 11:08:53;;;;;;;12.43;8.10;;;;;;;27.41;49.72;100173.85;128360;1087;64175;-83
2021/07/01 11:11:24;;;;;;;10.27;8.73;;;;;;;27.42;49.77;100171.98;128359;1087;64096;-85
2021/07/01 11:13:58;;;;;;;10.07;8.20;;;;;;;27.42;49.69;100169.27;128287;1086;64138;-84
2021/07/01 11:16:34;;;;;;;10.50;8.10;;;;;;;27.41;49.78;100173.85;128381;1087;64151;-83
2021/07/01 11:19:02;;;;;;;10.87;8.50;;;;;;;27.41;49.89;100170.31;128366;1086;64169;-83
2021/07/01 11:21:56;;;;;;;13.20;8.13;;;;;;;27.40;49.95;100168.60;128339;1085;64349;-84
2021/07/01 11:24:54;;;;;;;15.07;8.20;;;;;;;27.39;49.70;100159.64;128332;1087;64134;-84
2021/07/01 11:27:41;;;;;;;;;;;;;;;27.38;49.66;100163.36;128334;1085;64102;-84
2021/07/01 11:30:34;;;;;;;10.80;7.55;;;;;;;27.37;49.70;100161.66;128353;1087;64110;-83
2021/07/01 11:33:16;;;;;;;9.87;8.43;;;;;;;27.38;49.49;100167.91;128356;1087;64131;-83
2021/07/01 11:36:07;;;;;;;10.48;8.95;;;;;;;27.38;49.81;100165.20;128376;1086;64144;-84
2021/07/01 11:39:02;;;;;;;;;;;;;;;;;;;;;
2021/07/01 11:41:31;;;;;;;11.47;8.47;;;;;;;27.37;49.42;100172.49;128386;1086;64552;-83
2021/07/01 11:44:01;;;;;;;11.37;8.27;;;;;;;27.37;49.57;100167.08;128380;1087;64108;-84
2021/07/01 11:46:33;;;;;;;10.50;8.13;;;;;;;27.37;49.59;100167.08;128363;1086;64131;-84
2021/07/01 11:49:22;;;;;;;10.43;8.23;;;;;;;27.38;49.39;100157.06;128349;1086;64042;-84
2021/07/01 11:52:09;;;;;;;13.43;8.23;;;;;;;27.37;49.60;100158.11;128389;1087;64124;-85
2021/07/01 11:54:38;;;;;;;11.43;8.20;;;;;;;27.37;49.34;100163.53;128395;1087;64221;-83
2021/07/01 11:57:07;;;;;;;14.67;8.73;;;;;;;27.37;49.49;100158.11;128327;1087;64131;-82
2021/07/01 11:59:34;;;;;;;10.47;8.23;;;;;;;27.38;49.30;100146.23;128311;1087;64101;-83
2021/07/01 12:02:07;;;;;;;10.95;7.95;;;;;;;27.38;49.56;100147.09;128378;1087;64346;-83
2021/07/01 12:04:36;;;;;;;10.90;8.20;;;;;;;27.39;49.39;100142.52;128353;1086;64173;-83
2021/07/01 12:07:25;;;;;;;11.57;7.97;;;;;;;27.38;49.29;100138.96;128329;1087;64155;-83
2021/07/01 12:09:55;;;;;;;10.17;7.70;;;;;;;27.39;49.02;100142.52;128276;1087;64096;-82
2021/07/01 12:12:26;;;;;;;10.33;8.33;;;;;;;27.39;49.20;100143.38;128471;1086;64116;-82